Accueil
METAR-TAF:

METAR-TAF

Aéroports :

Bahreïn, Bahreïn

Aéroport international de Bahreïn

latitude: 26-16N, longitude: 050-39E, altitude: 2 m

Observation

Le bulletin a été fait il y a 17 minutes, à 12:30 UTC
Vent 8 kt de nord/nord-ouest
Température 34°C
Humidité 47%
Pression 1009 hPa
Visibilité 10 km ou plus
pas de nuages en-dessous de 1500 mètres et pas de cumulonimbus.

METAR: OBBI 181230Z 33008KT CAVOK 34/21 Q1009 NOSIG

Heure: 15:47 (12:47 UTC)

Prévision

Le bulletin a été fait il y a 1 heure et 47 minutes, à 11:00 UTC
Prévision valable du 18 à 12 UTC au 19 à 18 UTC
Vent 14 kt de nord/nord-ouest
Visibilité 10 km ou plus
pas de nuages en-dessous de 1500 mètres et pas de cumulonimbus.

TAF: OBBI 181100Z 1812/1918 34014KT CAVOK

Observations et prévisions météorologiques de plus de 4000 aéroports (messages METAR et TAF).

Les stations disponibles sont représentées par des disques jaunes et rouges sur la carte.

Passer la souris dessus pour voir le nom de la station.

Cliquer dessus pour voir les observations et prévisions météorologiques.

Pour changer de carte: cliquez sur les boutons verts avec une croix noire pour zoomer, sur le bouton vert avec un tiret pour effectuer un zoom arrière, ou sur les flèches vertes pour les cartes adjacentes.


METAR-TAF: